createdAt,value
2023-01-20T00:01:12.061Z,4.10
2023-01-20T00:03:42.333Z,4.10
2023-01-20T00:06:10.522Z,4.10
2023-01-20T00:08:39.192Z,4.10
2023-01-20T00:11:08.081Z,4.10
2023-01-20T00:13:36.743Z,4.10
2023-01-20T00:16:05.527Z,4.10
2023-01-20T00:18:34.859Z,4.00
2023-01-20T00:21:08.793Z,4.10
2023-01-20T00:23:36.858Z,4.10
2023-01-20T00:26:06.655Z,4.00
2023-01-20T00:28:35.285Z,4.10
2023-01-20T00:31:12.428Z,4.10
2023-01-20T00:33:41.045Z,4.00
2023-01-20T00:36:11.433Z,4.00
2023-01-20T00:38:39.485Z,3.90
2023-01-20T00:41:08.146Z,3.90
2023-01-20T00:43:36.460Z,3.80
2023-01-20T00:46:05.375Z,3.70
2023-01-20T00:48:33.760Z,3.70
2023-01-20T00:51:02.658Z,3.70
2023-01-20T00:53:32.303Z,3.70
2023-01-20T00:56:00.337Z,3.60
2023-01-20T00:58:28.415Z,3.60
2023-01-20T01:00:58.717Z,3.60
2023-01-20T01:03:28.654Z,3.60
2023-01-20T01:06:07.242Z,3.60
2023-01-20T01:08:36.701Z,3.70
2023-01-20T01:11:05.770Z,3.70
2023-01-20T01:13:34.514Z,3.80
2023-01-20T01:16:02.691Z,3.80
2023-01-20T01:18:30.785Z,3.80
2023-01-20T01:20:58.854Z,3.80
2023-01-20T01:23:26.903Z,3.80
2023-01-20T01:25:57.018Z,3.80
2023-01-20T01:28:25.048Z,3.80
2023-01-20T01:30:53.094Z,3.80
2023-01-20T01:33:21.086Z,3.90
2023-01-20T01:35:56.301Z,3.90
2023-01-20T01:38:24.654Z,3.80
2023-01-20T01:40:53.765Z,3.70
2023-01-20T01:43:25.835Z,3.70
2023-01-20T01:45:54.371Z,3.60
2023-01-20T01:48:24.771Z,3.50
2023-01-20T01:50:56.533Z,3.50
2023-01-20T01:53:26.046Z,3.60
2023-01-20T01:55:59.483Z,3.60
2023-01-20T01:58:33.505Z,3.60
2023-01-20T02:01:01.779Z,3.70
2023-01-20T02:03:37.016Z,3.80
2023-01-20T02:06:06.100Z,3.70
2023-01-20T02:08:34.926Z,3.50
2023-01-20T02:11:03.053Z,3.30
2023-01-20T02:13:32.630Z,3.20
2023-01-20T02:16:09.873Z,3.30
2023-01-20T02:18:51.788Z,3.30
2023-01-20T02:21:50.884Z,3.20
2023-01-20T02:24:48.358Z,3.20
2023-01-20T02:27:23.838Z,3.20
2023-01-20T02:30:19.135Z,3.20
2023-01-20T02:32:57.263Z,3.10
2023-01-20T02:35:30.411Z,3.00
2023-01-20T02:38:09.183Z,3.10
2023-01-20T02:40:44.137Z,3.10
2023-01-20T02:43:18.866Z,3.10
2023-01-20T02:45:51.327Z,3.00
2023-01-20T02:48:25.624Z,3.00
2023-01-20T02:51:00.322Z,3.00
2023-01-20T02:53:34.504Z,3.00
2023-01-20T02:56:02.652Z,3.00
2023-01-20T02:58:38.034Z,3.00
2023-01-20T03:01:12.687Z,3.00
2023-01-20T03:03:46.911Z,3.00
2023-01-20T03:06:19.481Z,3.00
2023-01-20T03:08:49.741Z,3.00
2023-01-20T03:11:37.199Z,3.00
2023-01-20T03:14:10.733Z,3.00
2023-01-20T03:16:39.869Z,3.10
2023-01-20T03:19:10.603Z,3.10
2023-01-20T03:21:38.644Z,3.00
2023-01-20T03:24:07.563Z,3.00
2023-01-20T03:26:35.813Z,3.00
2023-01-20T03:29:06.683Z,3.00
2023-01-20T03:31:37.716Z,3.00
2023-01-20T03:34:12.630Z,3.00
2023-01-20T03:36:42.160Z,3.00
2023-01-20T03:39:10.370Z,3.00
2023-01-20T03:41:48.235Z,3.00
2023-01-20T03:44:24.890Z,3.00
2023-01-20T03:46:59.159Z,3.00
2023-01-20T03:49:36.577Z,3.00
2023-01-20T03:52:09.844Z,2.90
2023-01-20T03:54:46.262Z,2.90
2023-01-20T03:57:19.648Z,3.00
2023-01-20T03:59:51.155Z,3.00
2023-01-20T04:02:20.511Z,3.00
2023-01-20T04:04:51.644Z,3.00
2023-01-20T04:07:23.517Z,3.00
2023-01-20T04:09:55.403Z,3.00
2023-01-20T04:12:23.413Z,2.90
2023-01-20T04:14:51.419Z,2.90
2023-01-20T04:17:19.655Z,3.00
2023-01-20T04:19:49.289Z,3.00
2023-01-20T04:22:23.592Z,3.00
2023-01-20T04:24:56.658Z,3.00
2023-01-20T04:27:24.638Z,3.00
2023-01-20T04:29:52.624Z,3.00
2023-01-20T04:32:20.659Z,3.10
2023-01-20T04:34:52.077Z,3.10
2023-01-20T04:37:20.052Z,3.10
2023-01-20T04:39:48.083Z,3.10
2023-01-20T04:42:16.068Z,3.10
2023-01-20T04:44:44.067Z,3.20
2023-01-20T04:47:12.053Z,3.20
2023-01-20T04:49:40.163Z,3.20
2023-01-20T04:52:09.539Z,3.20
2023-01-20T04:54:37.567Z,3.20
2023-01-20T04:57:05.534Z,3.20
2023-01-20T04:59:33.614Z,3.20
2023-01-20T05:02:02.018Z,3.30
2023-01-20T05:04:30.049Z,3.30
2023-01-20T05:06:58.077Z,3.40
2023-01-20T05:09:27.451Z,3.40
2023-01-20T05:11:55.421Z,3.40
2023-01-20T05:14:23.356Z,3.50
2023-01-20T05:16:51.448Z,3.60
2023-01-20T05:19:19.610Z,3.50
2023-01-20T05:21:47.667Z,3.50
2023-01-20T05:24:15.629Z,3.50
2023-01-20T05:26:44.985Z,3.60
2023-01-20T05:29:12.967Z,3.60
2023-01-20T05:31:43.388Z,3.60
2023-01-20T05:34:11.962Z,3.60
2023-01-20T05:36:40.030Z,3.60
2023-01-20T05:39:08.064Z,3.60
2023-01-20T05:41:36.107Z,3.60
2023-01-20T05:44:05.442Z,3.60
2023-01-20T05:46:33.516Z,3.60
2023-01-20T05:49:02.994Z,3.60
2023-01-20T05:51:32.043Z,3.70
2023-01-20T05:54:00.041Z,3.70
2023-01-20T05:56:28.054Z,3.70
2023-01-20T05:58:56.709Z,3.70
2023-01-20T06:01:26.333Z,3.70
2023-01-20T06:03:54.399Z,3.70
2023-01-20T06:06:22.492Z,3.70
2023-01-20T06:08:53.136Z,3.70
2023-01-20T06:11:21.312Z,3.60
2023-01-20T06:13:49.604Z,3.60
2023-01-20T06:16:18.119Z,3.60
2023-01-20T06:18:47.573Z,3.60
2023-01-20T06:21:15.647Z,3.60
2023-01-20T06:23:43.676Z,3.60
2023-01-20T06:26:13.895Z,3.50
2023-01-20T06:28:42.078Z,3.50
2023-01-20T06:31:11.727Z,3.60
2023-01-20T06:33:40.079Z,3.60
2023-01-20T06:36:10.993Z,3.50
2023-01-20T06:38:39.083Z,3.50
2023-01-20T06:41:10.771Z,3.60
2023-01-20T06:43:40.196Z,3.60
2023-01-20T06:46:11.463Z,3.50
2023-01-20T06:48:39.975Z,3.60
2023-01-20T06:51:12.133Z,3.50
2023-01-20T06:53:41.092Z,3.50
2023-01-20T06:56:11.563Z,3.50
2023-01-20T06:58:40.038Z,3.50
2023-01-20T07:01:10.025Z,3.60
2023-01-20T07:03:38.568Z,3.50
2023-01-20T07:06:15.764Z,3.50
2023-01-20T07:08:44.811Z,3.50
2023-01-20T07:11:12.976Z,3.50
2023-01-20T07:13:41.024Z,3.40
2023-01-20T07:16:11.557Z,3.50
2023-01-20T07:18:41.239Z,3.40
2023-01-20T07:21:11.277Z,3.40
2023-01-20T07:23:41.056Z,3.50
2023-01-20T07:26:10.977Z,3.40
2023-01-20T07:28:39.569Z,3.50
2023-01-20T07:31:09.879Z,3.50
2023-01-20T07:33:38.411Z,3.50
2023-01-20T07:36:08.098Z,3.50
2023-01-20T07:38:36.570Z,3.50
2023-01-20T07:41:07.786Z,3.60
2023-01-20T07:43:35.823Z,3.60
2023-01-20T07:46:05.862Z,3.50
2023-01-20T07:48:34.725Z,3.50
2023-01-20T07:51:05.673Z,3.50
2023-01-20T07:53:35.725Z,3.50
2023-01-20T07:56:06.929Z,3.60
2023-01-20T07:58:35.493Z,3.50
2023-01-20T08:01:11.242Z,3.50
2023-01-20T08:03:39.465Z,3.50
2023-01-20T08:06:09.216Z,3.50
2023-01-20T08:08:37.643Z,3.50
2023-01-20T08:11:08.779Z,3.50
2023-01-20T08:13:37.058Z,3.50
2023-01-20T08:16:07.083Z,3.50
2023-01-20T08:18:36.338Z,3.50
2023-01-20T08:21:06.584Z,3.50
2023-01-20T08:23:35.235Z,3.50
2023-01-20T08:26:05.191Z,3.50
2023-01-20T08:28:36.849Z,3.50
2023-01-20T08:31:07.360Z,3.60
2023-01-20T08:33:35.644Z,3.60
2023-01-20T08:36:09.352Z,3.60
2023-01-20T08:38:37.717Z,3.60
2023-01-20T08:41:08.699Z,3.60
2023-01-20T08:43:38.385Z,3.50
2023-01-20T08:46:09.216Z,3.60
2023-01-20T08:48:39.308Z,3.60
2023-01-20T08:51:09.536Z,3.60
2023-01-20T08:53:37.659Z,3.60
2023-01-20T08:56:06.198Z,3.60
2023-01-20T08:58:34.359Z,3.60
2023-01-20T09:01:08.691Z,3.70
2023-01-20T09:03:36.722Z,3.70
2023-01-20T09:06:06.559Z,3.80
2023-01-20T09:08:34.686Z,3.90
2023-01-20T09:11:03.928Z,4.00
2023-01-20T09:13:31.993Z,3.90
2023-01-20T09:16:00.320Z,3.90
2023-01-20T09:18:29.840Z,4.00
2023-01-20T09:20:58.727Z,3.90
2023-01-20T09:23:26.953Z,4.00
2023-01-20T09:25:55.066Z,4.00
2023-01-20T09:28:23.091Z,4.00
2023-01-20T09:30:51.356Z,4.00
2023-01-20T09:33:20.157Z,4.00
2023-01-20T09:35:55.530Z,4.10
2023-01-20T09:38:41.226Z,4.10
2023-01-20T09:41:34.845Z,4.20
2023-01-20T09:44:16.719Z,4.30
2023-01-20T09:47:10.258Z,4.40
2023-01-20T09:50:04.337Z,4.50
2023-01-20T09:52:54.885Z,4.70
2023-01-20T09:55:28.864Z,4.80
2023-01-20T09:58:02.778Z,4.80
2023-01-20T10:00:34.771Z,4.60
2023-01-20T10:03:08.130Z,4.50
2023-01-20T10:05:39.782Z,4.60
2023-01-20T10:08:18.005Z,4.60
2023-01-20T10:10:54.209Z,4.60
2023-01-20T10:13:27.880Z,4.60
2023-01-20T10:15:57.897Z,4.60
2023-01-20T10:18:31.781Z,4.60
2023-01-20T10:21:03.573Z,4.70
2023-01-20T10:23:40.780Z,4.70
2023-01-20T10:26:12.947Z,4.70
2023-01-20T10:28:58.519Z,4.70
2023-01-20T10:31:29.222Z,4.80
2023-01-20T10:34:01.581Z,4.80
2023-01-20T10:36:31.180Z,4.90
2023-01-20T10:39:05.501Z,4.90
2023-01-20T10:41:40.159Z,4.90
2023-01-20T10:44:12.922Z,4.80
2023-01-20T10:46:54.095Z,4.70
2023-01-20T10:49:42.543Z,4.70
2023-01-20T10:52:22.177Z,4.80
2023-01-20T10:54:59.475Z,4.80
2023-01-20T10:57:27.598Z,4.80
2023-01-20T11:00:00.134Z,4.80
2023-01-20T11:02:32.225Z,4.80
2023-01-20T11:05:02.131Z,4.90
2023-01-20T11:07:33.480Z,5.00
2023-01-20T11:10:20.169Z,4.90
2023-01-20T11:12:52.295Z,4.90
2023-01-20T11:15:23.126Z,4.80
2023-01-20T11:18:23.049Z,4.80
2023-01-20T11:20:53.580Z,4.70
2023-01-20T11:23:24.550Z,4.70
2023-01-20T11:25:58.564Z,4.80
2023-01-20T11:28:30.739Z,4.80
2023-01-20T11:30:58.829Z,4.90
2023-01-20T11:33:28.806Z,5.00
2023-01-20T11:36:05.377Z,5.00
2023-01-20T11:38:48.572Z,4.90
2023-01-20T11:41:22.591Z,4.90
2023-01-20T11:43:51.832Z,4.90
2023-01-20T11:46:25.683Z,4.80
2023-01-20T11:49:15.355Z,4.80
2023-01-20T11:51:49.713Z,4.70
2023-01-20T11:54:20.249Z,4.80
2023-01-20T11:56:52.891Z,4.80
2023-01-20T11:59:27.019Z,4.70
2023-01-20T12:02:02.755Z,4.80
2023-01-20T12:04:53.243Z,4.70
2023-01-20T12:07:28.004Z,4.70
2023-01-20T12:10:05.890Z,4.80
2023-01-20T12:12:41.347Z,4.70
2023-01-20T12:15:16.432Z,4.70
2023-01-20T12:17:51.445Z,4.80
2023-01-20T12:20:28.086Z,4.70
2023-01-20T12:23:05.978Z,4.70
2023-01-20T12:25:43.260Z,4.70
2023-01-20T12:28:17.276Z,4.70
2023-01-20T12:30:55.011Z,4.70
2023-01-20T12:33:25.936Z,4.70
2023-01-20T12:36:24.918Z,4.70
2023-01-20T12:39:16.492Z,4.60
2023-01-20T12:42:17.751Z,4.60
2023-01-20T12:44:50.564Z,4.60
2023-01-20T12:47:31.985Z,4.60
2023-01-20T12:50:15.988Z,4.50
2023-01-20T12:52:56.968Z,4.40
2023-01-20T12:55:36.042Z,4.40
2023-01-20T12:58:14.894Z,4.40
2023-01-20T13:01:12.624Z,4.60
2023-01-20T13:04:12.556Z,4.60
2023-01-20T13:06:57.894Z,4.50
2023-01-20T13:10:01.594Z,4.40
2023-01-20T13:12:47.642Z,4.40
2023-01-20T13:15:23.867Z,4.40
2023-01-20T13:18:06.886Z,4.40
2023-01-20T13:20:36.122Z,4.50
2023-01-20T13:23:06.557Z,4.40
2023-01-20T13:25:35.534Z,4.40
2023-01-20T13:28:04.930Z,4.40
2023-01-20T13:30:43.829Z,4.40
2023-01-20T13:33:33.167Z,4.30
2023-01-20T13:36:02.065Z,4.30
2023-01-20T13:38:33.220Z,4.20
2023-01-20T13:41:03.393Z,4.20
2023-01-20T13:43:48.835Z,4.10
2023-01-20T13:46:53.834Z,4.10
2023-01-20T13:49:26.046Z,4.00
2023-01-20T13:51:54.141Z,4.00
2023-01-20T13:54:52.294Z,4.00
2023-01-20T13:57:47.159Z,4.00
2023-01-20T14:00:20.270Z,4.10
2023-01-20T14:02:50.079Z,4.00
2023-01-20T14:05:41.879Z,4.00
2023-01-20T14:08:15.488Z,4.00
2023-01-20T14:10:43.820Z,4.10
2023-01-20T14:13:12.487Z,4.10
2023-01-20T14:15:41.439Z,4.10
2023-01-20T14:18:18.514Z,4.00
2023-01-20T14:21:03.452Z,4.00
2023-01-20T14:23:35.231Z,3.90
2023-01-20T14:26:06.762Z,3.80
2023-01-20T14:28:35.567Z,3.80
2023-01-20T14:31:37.521Z,3.80
2023-01-20T14:34:23.125Z,3.70
2023-01-20T14:36:53.153Z,3.70
2023-01-20T14:39:23.356Z,3.60
2023-01-20T14:41:53.108Z,3.70
2023-01-20T14:44:23.097Z,3.60
2023-01-20T14:46:53.481Z,3.60
2023-01-20T14:49:23.441Z,3.60
2023-01-20T14:51:53.621Z,3.70
2023-01-20T14:54:39.827Z,3.60
2023-01-20T14:57:21.846Z,3.60
2023-01-20T15:00:12.115Z,3.50
2023-01-20T15:02:41.884Z,3.50
2023-01-20T15:05:28.884Z,3.50
2023-01-20T15:08:24.410Z,3.50
2023-01-20T15:11:22.101Z,3.50
2023-01-20T15:14:17.058Z,3.50
2023-01-20T15:16:50.135Z,3.50
2023-01-20T15:19:34.225Z,3.60
2023-01-20T15:22:19.888Z,3.60
2023-01-20T15:24:50.550Z,3.60
2023-01-20T15:27:27.988Z,3.60
2023-01-20T15:30:15.928Z,3.60
2023-01-20T15:32:44.187Z,3.70
2023-01-20T15:35:16.085Z,3.60
2023-01-20T15:37:45.090Z,3.60
2023-01-20T15:40:19.433Z,3.70
2023-01-20T15:42:48.377Z,3.70
2023-01-20T15:45:17.084Z,3.70
2023-01-20T15:47:46.758Z,3.70
2023-01-20T15:50:20.831Z,3.70
2023-01-20T15:52:49.088Z,3.70
2023-01-20T15:55:19.998Z,3.80
2023-01-20T15:57:52.559Z,3.80
2023-01-20T16:00:23.490Z,3.80
2023-01-20T16:02:51.952Z,3.70
2023-01-20T16:05:20.111Z,3.60
2023-01-20T16:07:49.583Z,3.60
2023-01-20T16:10:20.650Z,3.60
2023-01-20T16:12:49.494Z,3.60
2023-01-20T16:15:18.809Z,3.70
2023-01-20T16:17:46.965Z,3.60
2023-01-20T16:20:20.172Z,3.60
2023-01-20T16:22:48.311Z,3.70
2023-01-20T16:25:16.874Z,3.60
2023-01-20T16:27:46.303Z,3.60
2023-01-20T16:30:17.415Z,3.60
2023-01-20T16:32:46.962Z,3.60
2023-01-20T16:35:16.063Z,3.50
2023-01-20T16:37:45.880Z,3.60
2023-01-20T16:40:16.360Z,3.60
2023-01-20T16:42:45.990Z,3.50
2023-01-20T16:45:24.735Z,3.50
2023-01-20T16:47:52.985Z,3.50
2023-01-20T16:50:21.205Z,3.50
2023-01-20T16:52:49.276Z,3.50
2023-01-20T16:55:17.500Z,3.40
2023-01-20T16:57:46.960Z,3.30
2023-01-20T17:00:18.686Z,3.30
2023-01-20T17:02:51.279Z,3.30
2023-01-20T17:05:22.417Z,3.30
2023-01-20T17:07:50.756Z,3.30
2023-01-20T17:10:20.224Z,3.30
2023-01-20T17:12:49.973Z,3.30
2023-01-20T17:15:18.135Z,3.30
2023-01-20T17:17:49.495Z,3.30
2023-01-20T17:20:18.241Z,3.30
2023-01-20T17:22:46.424Z,3.30
2023-01-20T17:25:17.908Z,3.30
2023-01-20T17:27:46.053Z,3.20
2023-01-20T17:30:16.909Z,3.20
2023-01-20T17:32:47.357Z,3.20
2023-01-20T17:35:15.939Z,3.10
2023-01-20T17:37:44.015Z,3.10
2023-01-20T17:40:13.483Z,3.10
2023-01-20T17:42:43.511Z,3.10
2023-01-20T17:45:12.448Z,3.30
2023-01-20T17:47:41.854Z,3.20
2023-01-20T17:50:10.984Z,3.10
2023-01-20T17:52:39.046Z,3.10
2023-01-20T17:55:07.992Z,3.00
2023-01-20T17:57:36.162Z,3.00
2023-01-20T18:00:06.297Z,3.00
2023-01-20T18:02:35.035Z,3.00
2023-01-20T18:05:04.907Z,2.90
2023-01-20T18:07:32.989Z,2.80
2023-01-20T18:10:01.026Z,2.80
2023-01-20T18:12:29.081Z,2.80
2023-01-20T18:14:58.616Z,2.80
2023-01-20T18:17:26.730Z,2.80
2023-01-20T18:19:55.101Z,2.80
2023-01-20T18:22:24.574Z,2.70
2023-01-20T18:24:52.694Z,2.70
2023-01-20T18:27:21.100Z,2.70
2023-01-20T18:29:50.266Z,2.70
2023-01-20T18:32:18.349Z,2.70
2023-01-20T18:34:46.390Z,2.70
2023-01-20T18:37:14.524Z,2.70
2023-01-20T18:39:43.967Z,2.70
2023-01-20T18:42:12.234Z,2.70
2023-01-20T18:44:40.343Z,2.70
2023-01-20T18:47:08.378Z,2.70
2023-01-20T18:49:38.062Z,2.70
2023-01-20T18:52:06.428Z,2.70
2023-01-20T18:54:37.137Z,2.70
2023-01-20T18:57:09.011Z,2.70
2023-01-20T18:59:37.333Z,2.70
2023-01-20T19:02:05.325Z,2.70
2023-01-20T19:04:33.635Z,2.60
2023-01-20T19:07:01.664Z,2.70
2023-01-20T19:09:29.697Z,2.70
2023-01-20T19:11:57.677Z,2.70
2023-01-20T19:14:27.696Z,2.70
2023-01-20T19:16:55.855Z,2.70
2023-01-20T19:19:23.992Z,2.60
2023-01-20T19:21:52.683Z,2.70
2023-01-20T19:24:22.156Z,2.70
2023-01-20T19:26:50.226Z,2.70
2023-01-20T19:29:18.829Z,2.60
2023-01-20T19:31:49.107Z,2.60
2023-01-20T19:34:17.280Z,2.50
2023-01-20T19:36:45.313Z,2.50
2023-01-20T19:39:13.398Z,2.50
2023-01-20T19:41:41.630Z,2.50
2023-01-20T19:44:13.358Z,2.50
2023-01-20T19:46:41.409Z,2.50
2023-01-20T19:49:11.836Z,2.50
2023-01-20T19:51:39.935Z,2.50
2023-01-20T19:54:08.112Z,2.40
2023-01-20T19:56:36.653Z,2.40
2023-01-20T19:59:06.342Z,2.40
2023-01-20T20:01:35.878Z,2.30
2023-01-20T20:04:07.375Z,2.40
2023-01-20T20:06:39.397Z,2.30
2023-01-20T20:09:09.536Z,2.40
2023-01-20T20:11:37.978Z,2.30
2023-01-20T20:14:07.459Z,2.40
2023-01-20T20:16:37.478Z,2.40
2023-01-20T20:19:06.077Z,2.30
2023-01-20T20:21:36.369Z,2.30
2023-01-20T20:24:05.210Z,2.30
2023-01-20T20:26:35.005Z,2.30
2023-01-20T20:29:05.213Z,2.30
2023-01-20T20:31:35.501Z,2.30
2023-01-20T20:34:05.823Z,2.30
2023-01-20T20:36:33.960Z,2.30
2023-01-20T20:39:04.957Z,2.30
2023-01-20T20:41:35.282Z,2.30
2023-01-20T20:44:04.015Z,2.20
2023-01-20T20:46:32.326Z,2.20
2023-01-20T20:49:02.027Z,2.20
2023-01-20T20:51:31.884Z,2.20
2023-01-20T20:54:01.819Z,2.20
2023-01-20T20:56:32.415Z,2.20
2023-01-20T20:59:03.462Z,2.20
2023-01-20T21:01:33.825Z,2.20
2023-01-20T21:04:03.001Z,2.20
2023-01-20T21:06:31.887Z,2.20
2023-01-20T21:09:00.263Z,2.20
2023-01-20T21:11:28.850Z,2.20
2023-01-20T21:13:58.610Z,2.20
2023-01-20T21:16:28.118Z,2.20
2023-01-20T21:18:57.250Z,2.20
2023-01-20T21:21:25.798Z,2.10
2023-01-20T21:23:55.504Z,2.20
2023-01-20T21:26:24.683Z,2.10
2023-01-20T21:28:53.894Z,2.20
2023-01-20T21:31:26.702Z,2.10
2023-01-20T21:33:56.962Z,2.10
2023-01-20T21:36:25.957Z,2.10
2023-01-20T21:38:54.028Z,2.10
2023-01-20T21:41:22.088Z,2.10
2023-01-20T21:44:12.526Z,2.10
2023-01-20T21:46:42.000Z,2.00
2023-01-20T21:49:30.071Z,2.00
2023-01-20T21:52:15.388Z,2.00
2023-01-20T21:54:45.179Z,2.00
2023-01-20T21:57:13.713Z,2.00
2023-01-20T21:59:42.004Z,2.00
2023-01-20T22:02:12.999Z,2.00
2023-01-20T22:04:41.498Z,2.00
2023-01-20T22:07:10.264Z,2.00
2023-01-20T22:09:38.280Z,2.10
2023-01-20T22:12:06.762Z,2.00
2023-01-20T22:14:34.860Z,2.00
2023-01-20T22:17:03.164Z,2.00
2023-01-20T22:19:32.636Z,2.00
2023-01-20T22:22:01.594Z,2.00
2023-01-20T22:24:30.319Z,1.90
2023-01-20T22:26:58.843Z,2.00
2023-01-20T22:29:26.927Z,2.00
2023-01-20T22:31:55.899Z,1.90
2023-01-20T22:34:24.116Z,1.90
2023-01-20T22:36:55.494Z,1.80
2023-01-20T22:39:23.862Z,1.90
2023-01-20T22:41:51.867Z,1.80
2023-01-20T22:44:19.902Z,1.90
2023-01-20T22:46:47.954Z,1.90
2023-01-20T22:49:16.023Z,1.90
2023-01-20T22:51:44.037Z,1.80
2023-01-20T22:54:13.443Z,1.80
2023-01-20T22:56:41.516Z,1.70
2023-01-20T22:59:12.717Z,1.70
2023-01-20T23:01:40.824Z,1.70
2023-01-20T23:04:08.875Z,1.50
2023-01-20T23:06:37.666Z,1.50
2023-01-20T23:09:08.489Z,1.40
2023-01-20T23:11:40.102Z,1.30
2023-01-20T23:14:10.454Z,1.20
2023-01-20T23:16:38.576Z,1.30
2023-01-20T23:19:07.491Z,1.30
2023-01-20T23:21:35.883Z,1.40
2023-01-20T23:24:04.009Z,1.40
2023-01-20T23:26:32.927Z,1.40
2023-01-20T23:29:02.262Z,1.40
2023-01-20T23:31:33.412Z,1.50
2023-01-20T23:34:01.447Z,1.50
2023-01-20T23:36:29.550Z,1.50
2023-01-20T23:38:58.021Z,1.40
2023-01-20T23:41:26.148Z,1.50
2023-01-20T23:43:54.237Z,1.50
2023-01-20T23:46:23.588Z,1.50
2023-01-20T23:48:51.623Z,1.50
2023-01-20T23:51:19.671Z,1.40
2023-01-20T23:53:47.649Z,1.40
2023-01-20T23:56:17.813Z,1.30
2023-01-20T23:58:46.150Z,1.40
